N14AD KSBP-KLAX
Flight info
| Callsign | N14AD |
|---|---|
| Flight time | 0h 45m |
| Altitude | 18000 |
| Route | RZS IRNMN IRNMN2 |
| Aircraft | C25C/M-SDE2E3FGHRWXY/LB1 |
Departure
| Time | 2026-05-07 16:32 |
|---|---|
| Airport | San Luis County Regional Airport (KSBP) |
Arrival
| Time | 2026-05-07 17:17 |
|---|---|
| Airport | Los Angeles International Airport (KLAX) |
| Time | Latitude | Longitude | Altitude | Speed | Heading |
|---|---|---|---|---|---|
| 2026-05-07 16:17 | 35.23501 | -120.63324 | 212 ft | 0 kts | 28° |
| 2026-05-07 16:27 | 35.23503 | -120.63323 | 212 ft | 0 kts | 24° |
| 2026-05-07 16:27 | 35.23514 | -120.63320 | 214 ft | 0 kts | 24° |
| 2026-05-07 16:28 | 35.23499 | -120.63329 | 217 ft | 2 kts | 30° |
| 2026-05-07 16:28 | 35.23480 | -120.63342 | 215 ft | 3 kts | 22° |
| 2026-05-07 16:28 | 35.23459 | -120.63344 | 213 ft | 3 kts | 333° |
| 2026-05-07 16:29 | 35.23449 | -120.63336 | 213 ft | 0 kts | 309° |
| 2026-05-07 16:29 | 35.23454 | -120.63363 | 213 ft | 3 kts | 227° |
| 2026-05-07 16:29 | 35.23452 | -120.63365 | 213 ft | 0 kts | 212° |
| 2026-05-07 16:30 | 35.23449 | -120.63367 | 213 ft | 1 kts | 212° |
| 2026-05-07 16:30 | 35.23424 | -120.63366 | 213 ft | 6 kts | 137° |
| 2026-05-07 16:30 | 35.23391 | -120.63311 | 215 ft | 10 kts | 124° |
| 2026-05-07 16:30 | 35.23354 | -120.63248 | 218 ft | 8 kts | 133° |
| 2026-05-07 16:31 | 35.23328 | -120.63240 | 218 ft | 8 kts | 187° |
| 2026-05-07 16:31 | 35.23280 | -120.63294 | 217 ft | 11 kts | 256° |
| 2026-05-07 16:31 | 35.23307 | -120.63357 | 215 ft | 13 kts | 304° |
| 2026-05-07 16:31 | 35.23569 | -120.63815 | 200 ft | 119 kts | 304° |
| 2026-05-07 16:32 | 35.24442 | -120.65372 | 763 ft | 185 kts | 304° |
| 2026-05-07 16:32 | 35.24921 | -120.66257 | 1363 ft | 194 kts | 304° |
| 2026-05-07 16:32 | 35.25660 | -120.67680 | 2191 ft | 203 kts | 304° |
| 2026-05-07 16:32 | 35.26415 | -120.69186 | 2907 ft | 214 kts | 303° |
| 2026-05-07 16:33 | 35.27195 | -120.70764 | 3899 ft | 219 kts | 303° |
| 2026-05-07 16:33 | 35.27996 | -120.72380 | 5322 ft | 224 kts | 303° |
| 2026-05-07 16:33 | 35.28778 | -120.73951 | 6705 ft | 230 kts | 303° |
| 2026-05-07 16:33 | 35.29644 | -120.75685 | 7707 ft | 248 kts | 303° |
| 2026-05-07 16:34 | 35.30573 | -120.77539 | 8457 ft | 261 kts | 303° |
| 2026-05-07 16:34 | 35.31411 | -120.79216 | 9290 ft | 266 kts | 302° |
| 2026-05-07 16:36 | 35.31902 | -120.80908 | 10062 ft | 274 kts | 276° |
| 2026-05-07 16:36 | 35.31525 | -120.83137 | 10983 ft | 281 kts | 242° |
| 2026-05-07 16:37 | 35.30309 | -120.84689 | 11854 ft | 286 kts | 210° |
| 2026-05-07 16:37 | 35.28409 | -120.85311 | 12825 ft | 290 kts | 177° |
| 2026-05-07 16:37 | 35.26540 | -120.84781 | 13032 ft | 320 kts | 152° |
| 2026-05-07 16:37 | 35.24544 | -120.83327 | 13024 ft | 353 kts | 145° |
| 2026-05-07 16:38 | 35.22558 | -120.81683 | 13027 ft | 369 kts | 143° |
| 2026-05-07 16:38 | 35.20462 | -120.79860 | 13019 ft | 373 kts | 141° |
| 2026-05-07 16:38 | 35.18788 | -120.77543 | 13546 ft | 363 kts | 120° |
| 2026-05-07 16:38 | 35.17479 | -120.74915 | 14271 ft | 366 kts | 119° |
| 2026-05-07 16:39 | 35.16144 | -120.72255 | 14939 ft | 369 kts | 119° |
| 2026-05-07 16:39 | 35.14704 | -120.69562 | 15628 ft | 373 kts | 122° |
| 2026-05-07 16:39 | 35.13168 | -120.66986 | 16276 ft | 377 kts | 124° |
| 2026-05-07 16:39 | 35.11615 | -120.64389 | 16900 ft | 380 kts | 123° |
| 2026-05-07 16:40 | 35.10076 | -120.61747 | 17504 ft | 383 kts | 122° |
| 2026-05-07 16:40 | 35.08553 | -120.59097 | 18278 ft | 381 kts | 122° |
| 2026-05-07 16:40 | 35.07029 | -120.56436 | 18805 ft | 384 kts | 121° |
| 2026-05-07 16:40 | 35.05524 | -120.53813 | 19095 ft | 372 kts | 121° |
| 2026-05-07 16:41 | 35.04044 | -120.51238 | 19123 ft | 371 kts | 121° |
| 2026-05-07 16:41 | 35.02566 | -120.48667 | 19124 ft | 370 kts | 121° |
| 2026-05-07 16:41 | 35.01104 | -120.46130 | 19123 ft | 369 kts | 121° |
| 2026-05-07 16:41 | 34.99625 | -120.43570 | 19124 ft | 369 kts | 121° |
| 2026-05-07 16:42 | 34.98128 | -120.40983 | 19125 ft | 369 kts | 121° |
| 2026-05-07 16:42 | 34.96650 | -120.38431 | 19128 ft | 368 kts | 121° |
| 2026-05-07 16:42 | 34.95174 | -120.35885 | 19125 ft | 368 kts | 121° |
| 2026-05-07 16:42 | 34.93717 | -120.33376 | 19117 ft | 367 kts | 121° |
| 2026-05-07 16:43 | 34.92242 | -120.30838 | 19114 ft | 367 kts | 121° |
| 2026-05-07 16:43 | 34.90767 | -120.28301 | 19107 ft | 367 kts | 121° |
| 2026-05-07 16:43 | 34.89296 | -120.25769 | 19104 ft | 366 kts | 121° |
| 2026-05-07 16:43 | 34.87823 | -120.23237 | 19103 ft | 366 kts | 121° |
| 2026-05-07 16:44 | 34.86352 | -120.20711 | 19104 ft | 366 kts | 121° |
| 2026-05-07 16:44 | 34.84860 | -120.18151 | 19101 ft | 366 kts | 121° |
| 2026-05-07 16:44 | 34.83388 | -120.15630 | 19102 ft | 366 kts | 121° |
| 2026-05-07 16:44 | 34.81935 | -120.13140 | 19120 ft | 366 kts | 121° |
| 2026-05-07 16:45 | 34.80460 | -120.10618 | 19118 ft | 366 kts | 121° |
| 2026-05-07 16:45 | 34.78963 | -120.08060 | 19119 ft | 366 kts | 121° |
| 2026-05-07 16:45 | 34.77505 | -120.05564 | 19117 ft | 367 kts | 121° |
| 2026-05-07 16:45 | 34.76005 | -120.03006 | 19109 ft | 366 kts | 121° |
| 2026-05-07 16:46 | 34.74548 | -120.00516 | 19111 ft | 366 kts | 121° |
| 2026-05-07 16:46 | 34.73068 | -119.97997 | 19105 ft | 366 kts | 121° |
| 2026-05-07 16:46 | 34.71573 | -119.95448 | 19096 ft | 365 kts | 121° |
| 2026-05-07 16:46 | 34.70097 | -119.92938 | 19108 ft | 365 kts | 121° |
| 2026-05-07 16:47 | 34.68622 | -119.90429 | 19116 ft | 365 kts | 121° |
| 2026-05-07 16:47 | 34.67169 | -119.87954 | 19120 ft | 365 kts | 121° |
| 2026-05-07 16:47 | 34.65674 | -119.85410 | 19117 ft | 366 kts | 121° |
| 2026-05-07 16:47 | 34.64216 | -119.82931 | 19117 ft | 366 kts | 121° |
| 2026-05-07 16:48 | 34.62735 | -119.80409 | 19108 ft | 367 kts | 121° |
| 2026-05-07 16:48 | 34.61227 | -119.77852 | 19103 ft | 368 kts | 121° |
| 2026-05-07 16:48 | 34.59757 | -119.75359 | 19105 ft | 369 kts | 121° |
| 2026-05-07 16:48 | 34.58265 | -119.72828 | 19111 ft | 369 kts | 121° |
| 2026-05-07 16:49 | 34.56768 | -119.70298 | 19100 ft | 369 kts | 121° |
| 2026-05-07 16:49 | 34.55270 | -119.67767 | 19102 ft | 369 kts | 121° |
| 2026-05-07 16:49 | 34.53769 | -119.65231 | 19099 ft | 371 kts | 121° |
| 2026-05-07 16:49 | 34.52872 | -119.63715 | 19101 ft | 372 kts | 121° |
| 2026-05-07 16:53 | 34.52264 | -119.62689 | 19104 ft | 373 kts | 121° |
| 2026-05-07 16:54 | 34.50770 | -119.60168 | 19103 ft | 374 kts | 121° |
| 2026-05-07 16:54 | 34.49361 | -119.57791 | 19104 ft | 376 kts | 121° |
| 2026-05-07 16:54 | 34.47876 | -119.55288 | 19106 ft | 374 kts | 121° |
| 2026-05-07 16:54 | 34.46633 | -119.53199 | 19093 ft | 373 kts | 121° |
| 2026-05-07 16:55 | 34.45179 | -119.50758 | 19084 ft | 371 kts | 121° |
| 2026-05-07 16:55 | 34.43954 | -119.48697 | 19083 ft | 370 kts | 121° |
| 2026-05-07 16:55 | 34.42538 | -119.46319 | 19083 ft | 369 kts | 121° |
| 2026-05-07 16:55 | 34.41109 | -119.43917 | 19079 ft | 371 kts | 121° |
| 2026-05-07 16:56 | 34.39734 | -119.41604 | 19079 ft | 373 kts | 121° |
| 2026-05-07 16:56 | 34.38309 | -119.39211 | 19081 ft | 374 kts | 121° |
| 2026-05-07 16:56 | 34.35384 | -119.34301 | 19090 ft | 377 kts | 121° |
| 2026-05-07 16:57 | 34.34046 | -119.32064 | 19095 ft | 378 kts | 121° |
| 2026-05-07 16:57 | 34.32548 | -119.29555 | 19096 ft | 379 kts | 121° |
| 2026-05-07 16:57 | 34.30988 | -119.26945 | 19096 ft | 380 kts | 121° |
| 2026-05-07 16:57 | 34.29465 | -119.24395 | 19087 ft | 381 kts | 121° |
| 2026-05-07 16:58 | 34.27908 | -119.21796 | 19084 ft | 382 kts | 121° |
| 2026-05-07 16:58 | 34.26351 | -119.19198 | 19078 ft | 382 kts | 121° |
| 2026-05-07 16:58 | 34.24788 | -119.16593 | 19072 ft | 383 kts | 121° |
| 2026-05-07 16:58 | 34.23226 | -119.13991 | 19083 ft | 383 kts | 121° |
| 2026-05-07 16:59 | 34.21648 | -119.11357 | 18729 ft | 393 kts | 121° |
| 2026-05-07 16:59 | 34.20027 | -119.08652 | 18181 ft | 398 kts | 121° |
| 2026-05-07 16:59 | 34.18442 | -119.05937 | 17619 ft | 393 kts | 118° |
| 2026-05-07 16:59 | 34.17158 | -119.03063 | 17076 ft | 383 kts | 111° |
| 2026-05-07 17:00 | 34.16095 | -119.00237 | 16569 ft | 358 kts | 109° |
| 2026-05-07 17:00 | 34.15139 | -118.97563 | 16110 ft | 337 kts | 108° |
| 2026-05-07 17:00 | 34.14239 | -118.95029 | 15687 ft | 320 kts | 108° |
| 2026-05-07 17:00 | 34.13374 | -118.92599 | 15287 ft | 313 kts | 109° |
| 2026-05-07 17:01 | 34.12442 | -118.90244 | 14890 ft | 309 kts | 112° |
| 2026-05-07 17:01 | 34.11455 | -118.87885 | 14483 ft | 304 kts | 112° |
| 2026-05-07 17:01 | 34.10546 | -118.85597 | 14094 ft | 300 kts | 110° |
| 2026-05-07 17:01 | 34.09674 | -118.83323 | 13692 ft | 298 kts | 111° |
| 2026-05-07 17:02 | 34.08789 | -118.81078 | 13281 ft | 294 kts | 111° |
| 2026-05-07 17:02 | 34.07906 | -118.78865 | 12874 ft | 292 kts | 111° |
| 2026-05-07 17:02 | 34.07024 | -118.76670 | 12479 ft | 289 kts | 112° |
| 2026-05-07 17:02 | 34.06443 | -118.75233 | 12231 ft | 289 kts | 111° |
| 2026-05-07 17:03 | 34.05571 | -118.73045 | 11876 ft | 289 kts | 111° |
| 2026-05-07 17:03 | 34.04709 | -118.70858 | 11508 ft | 288 kts | 111° |
| 2026-05-07 17:03 | 34.03856 | -118.68680 | 11140 ft | 287 kts | 111° |
| 2026-05-07 17:03 | 34.03029 | -118.66494 | 10795 ft | 285 kts | 106° |
| 2026-05-07 17:04 | 34.02590 | -118.64195 | 10440 ft | 280 kts | 94° |
| 2026-05-07 17:04 | 34.02373 | -118.61866 | 10082 ft | 279 kts | 92° |
| 2026-05-07 17:04 | 34.02210 | -118.59541 | 9705 ft | 278 kts | 91° |
| 2026-05-07 17:04 | 34.02067 | -118.57217 | 9339 ft | 277 kts | 91° |
| 2026-05-07 17:05 | 34.01930 | -118.54913 | 8997 ft | 276 kts | 92° |
| 2026-05-07 17:05 | 34.01702 | -118.52631 | 8659 ft | 272 kts | 95° |
| 2026-05-07 17:05 | 34.01444 | -118.50416 | 8316 ft | 260 kts | 94° |
| 2026-05-07 17:05 | 34.01239 | -118.48318 | 8029 ft | 248 kts | 92° |
| 2026-05-07 17:06 | 34.01079 | -118.46275 | 7705 ft | 243 kts | 92° |
| 2026-05-07 17:06 | 34.01144 | -118.44270 | 7360 ft | 237 kts | 78° |
| 2026-05-07 17:06 | 34.01463 | -118.42340 | 7053 ft | 233 kts | 75° |
| 2026-05-07 17:06 | 34.01837 | -118.40435 | 6750 ft | 235 kts | 73° |
| 2026-05-07 17:07 | 34.02238 | -118.38511 | 6485 ft | 238 kts | 73° |
| 2026-05-07 17:07 | 34.02620 | -118.36604 | 6243 ft | 232 kts | 75° |
| 2026-05-07 17:07 | 34.02913 | -118.34696 | 6004 ft | 228 kts | 80° |
| 2026-05-07 17:07 | 34.03079 | -118.32855 | 5983 ft | 214 kts | 82° |
| 2026-05-07 17:08 | 34.03209 | -118.31040 | 5536 ft | 219 kts | 83° |
| 2026-05-07 17:08 | 34.03345 | -118.29214 | 5058 ft | 219 kts | 80° |
| 2026-05-07 17:08 | 34.03561 | -118.27401 | 4567 ft | 218 kts | 78° |
| 2026-05-07 17:08 | 34.03789 | -118.25593 | 4109 ft | 218 kts | 79° |
| 2026-05-07 17:09 | 34.03981 | -118.23792 | 3688 ft | 217 kts | 82° |
| 2026-05-07 17:09 | 34.04143 | -118.21986 | 3207 ft | 217 kts | 82° |
| 2026-05-07 17:09 | 34.04346 | -118.20187 | 2712 ft | 216 kts | 81° |
| 2026-05-07 17:09 | 34.04564 | -118.18445 | 2596 ft | 206 kts | 81° |
| 2026-05-07 17:10 | 34.04786 | -118.16750 | 2614 ft | 204 kts | 80° |
| 2026-05-07 17:10 | 34.05014 | -118.15078 | 2610 ft | 201 kts | 80° |
| 2026-05-07 17:10 | 34.05171 | -118.13404 | 2598 ft | 201 kts | 93° |
| 2026-05-07 17:10 | 34.04547 | -118.11965 | 2585 ft | 198 kts | 143° |
| 2026-05-07 17:11 | 34.03282 | -118.11407 | 2591 ft | 194 kts | 168° |
| 2026-05-07 17:11 | 34.01969 | -118.11070 | 2593 ft | 192 kts | 169° |
| 2026-05-07 17:11 | 34.00655 | -118.10782 | 2597 ft | 191 kts | 175° |
| 2026-05-07 17:11 | 33.99435 | -118.11231 | 2594 ft | 188 kts | 222° |
| 2026-05-07 17:12 | 33.98532 | -118.12366 | 2601 ft | 188 kts | 229° |
| 2026-05-07 17:12 | 33.97664 | -118.13543 | 2596 ft | 188 kts | 230° |
| 2026-05-07 17:12 | 33.96843 | -118.14776 | 2600 ft | 189 kts | 234° |
| 2026-05-07 17:12 | 33.96156 | -118.16116 | 2596 ft | 189 kts | 255° |
| 2026-05-07 17:13 | 33.95937 | -118.17673 | 2603 ft | 190 kts | 259° |
| 2026-05-07 17:13 | 33.95683 | -118.19218 | 2602 ft | 183 kts | 260° |
| 2026-05-07 17:13 | 33.95493 | -118.20644 | 2597 ft | 160 kts | 264° |
| 2026-05-07 17:13 | 33.95374 | -118.21938 | 2556 ft | 157 kts | 265° |
| 2026-05-07 17:14 | 33.95272 | -118.23259 | 2476 ft | 160 kts | 265° |
| 2026-05-07 17:14 | 33.95145 | -118.24616 | 2329 ft | 166 kts | 263° |
| 2026-05-07 17:14 | 33.94978 | -118.26010 | 2129 ft | 168 kts | 262° |
| 2026-05-07 17:14 | 33.94846 | -118.27371 | 1907 ft | 161 kts | 264° |
| 2026-05-07 17:15 | 33.94722 | -118.28695 | 1689 ft | 158 kts | 262° |
| 2026-05-07 17:15 | 33.94583 | -118.29994 | 1478 ft | 155 kts | 262° |
| 2026-05-07 17:15 | 33.94443 | -118.31278 | 1271 ft | 154 kts | 262° |
| 2026-05-07 17:15 | 33.94325 | -118.32545 | 1067 ft | 149 kts | 263° |
| 2026-05-07 17:16 | 33.94196 | -118.33739 | 881 ft | 140 kts | 261° |
| 2026-05-07 17:16 | 33.94077 | -118.34855 | 701 ft | 129 kts | 263° |
| 2026-05-07 17:16 | 33.93985 | -118.35884 | 532 ft | 119 kts | 263° |
| 2026-05-07 17:16 | 33.93882 | -118.36849 | 370 ft | 115 kts | 263° |
| 2026-05-07 17:17 | 33.93791 | -118.37780 | 224 ft | 109 kts | 262° |
| 2026-05-07 17:17 | 33.93703 | -118.38630 | 123 ft | 93 kts | 263° |
| 2026-05-07 17:17 | 33.93635 | -118.39284 | 119 ft | 41 kts | 264° |
| 2026-05-07 17:17 | 33.93550 | -118.39371 | 118 ft | 12 kts | 182° |
| 2026-05-07 17:18 | 33.93533 | -118.39372 | 119 ft | 0 kts | 182° |
| 2026-05-07 17:18 | 33.93519 | -118.39372 | 118 ft | 7 kts | 178° |
| 2026-05-07 17:19 | 33.93461 | -118.39334 | 118 ft | 8 kts | 187° |
| 2026-05-07 17:19 | 33.93402 | -118.39338 | 119 ft | 9 kts | 183° |
| 2026-05-07 17:19 | 33.93353 | -118.39337 | 119 ft | 0 kts | 179° |